Main page
METAR-TAF:

METAR-TAF

Airports :

Tunis, Tunisia

Tunis–Carthage International Airport

latitude: 36-50N, longitude: 010-14E, elevation: 3 m

Current weather observation

The report was made 1 hour and 26 minutes ago, at 22:00 UTC
Wind 2 kt from the North
Temperature 25°C
Humidity 74%
Pressure 1016 hPa
Visibility 10 km or more
Few clouds at a height of 2600 ft

METAR: DTTA 172200Z 35002KT 9999 FEW026 25/20 Q1016 NOSIG

Time: 00:26 (23:26 UTC)

Forecast

The report was made 6 hours and 26 minutes ago, at 17:00 UTC
Forecast valid from 17 at 18 UTC to 18 at 18 UTC
Wind 10 kt from the Northeast
Visibility 10 km or more
no clouds below 1500 m and no cumulonimbus
Becoming
from 17 at 20 UTC to 17 at 22 UTC
Wind 10 kt from the North/Northwest
Becoming
from 17 at 23 UTC to 18 at 01 UTC
Wind 3 kt from variable directions
Becoming
from 18 at 09 UTC to 18 at 11 UTC
Wind 12 kt from the East

TAF: DTTA 171700Z 1718/1818 05010KT CAVOK BECMG 1720/1722 34010KT BECMG 1723/1801 VRB03KT BECMG 1809/1811 08012KT

Weather observations and forecasts of more than 4000 airports (METAR and TAF reports).

The available stations are represented by yellow and red dots on the map.

Hover mouse over dot to see the name of the station.

Then click to see weather observations and forecasts.

To change the map : click on the green buttons with a black cross to zoom in, on the green button with a dash to zoom out, or on the green arrows for adjacent maps.


METAR-TAF: